Time;durP1;ratioP1;P1;durP2;ratioP2;P2;SDS_P1;SDS_P2;PMS_P1;PMS_P2;Temp;Humidity;BMP_temperature;BMP_pressure;BME280_temperature;BME280_humidity;BME280_pressure;Samples;Min_cycle;Max_cycle;Signal;HPM_P1;HPM_P2
2021/11/10 00:01:18;;;;;;;;;;;;;;;4.71;100.00;101114.44;5093166;28;19970;-33
2021/11/10 00:03:43;;;;;;;;;;;;;;;4.64;100.00;101109.03;5092888;28;20339;-33
2021/11/10 00:06:09;;;;;;;;;;;;;;;4.68;100.00;101117.44;5092823;28;19912;-33
2021/11/10 00:08:34;;;;;;;;;;;;;;;4.77;100.00;101129.59;5092782;28;19912;-34
2021/11/10 00:11:00;;;;;;;;;;;;;;;4.75;100.00;101122.88;5092688;28;20010;-34
2021/11/10 00:13:25;;;;;;;;;;;;;;;4.73;100.00;101128.31;5092723;28;19962;-34
2021/11/10 00:15:51;;;;;;;;;;;;;;;4.72;100.00;101127.47;5092638;28;19912;-34
2021/11/10 00:18:17;;;;;;;;;;;;;;;4.71;100.00;101139.06;5092581;28;19961;-34
2021/11/10 00:20:43;;;;;;;;;;;;;;;4.69;100.00;101124.38;5092554;28;19912;-33
2021/11/10 00:23:08;;;;;;;;;;;;;;;4.70;100.00;101134.75;5092594;28;19916;-33
2021/11/10 00:25:34;;;;;;;;;;;;;;;4.81;100.00;101133.56;5092868;28;19962;-33
2021/11/10 00:27:59;;;;;;;;;;;;;;;4.74;100.00;101135.22;5091543;28;20361;-34
2021/11/10 00:30:26;;;;;;;;;;;;;;;4.77;100.00;101136.72;5092406;28;19986;-34
2021/11/10 00:32:52;;;;;;;;;;;;;;;4.76;100.00;101142.97;5092695;28;19916;-33
2021/11/10 00:35:18;;;;;;;;;;;;;;;4.84;100.00;101157.00;5092423;28;19923;-33
2021/11/10 00:37:43;;;;;;;;;;;;;;;4.87;100.00;101151.41;5092660;28;19919;-34
2021/11/10 00:40:09;;;;;;;;;;;;;;;4.93;100.00;101154.34;5092863;28;19919;-34
2021/11/10 00:42:34;;;;;;;;;;;;;;;4.92;100.00;101153.53;5092385;28;19997;-33
2021/11/10 00:44:59;;;;;;;;;;;;;;;5.01;100.00;101157.78;5092379;28;19908;-33
2021/11/10 00:47:25;;;;;;;;;;;;;;;5.03;100.00;101155.78;5092336;28;19916;-33
2021/11/10 00:49:50;;;;;;;;;;;;;;;5.10;100.00;101160.38;5092538;28;19958;-33
2021/11/10 00:52:16;;;;;;;;;;;;;;;5.13;100.00;101171.44;5092637;28;20334;-34
2021/11/10 00:54:41;;;;;;;;;;;;;;;5.19;100.00;101172.56;5092088;28;20307;-33
2021/11/10 00:57:07;;;;;;;;;;;;;;;5.30;100.00;101182.75;5092170;28;19912;-33
2021/11/10 00:59:32;;;;;;;;;;;;;;;5.40;100.00;101183.38;5092444;28;20007;-33
2021/11/10 01:01:58;;;;;;;;;;;;;;;5.48;100.00;101173.75;5092516;28;20405;-33
2021/11/10 01:04:23;;;;;;;;;;;;;;;5.42;100.00;101176.09;5092493;28;20339;-34
2021/11/10 01:06:48;;;;;;;;;;;;;;;5.42;100.00;101176.09;5092105;28;20360;-34
2021/11/10 01:09:18;;;;;;;;;;;;;;;5.36;100.00;101190.00;5092145;28;19912;-34
2021/11/10 01:11:44;;;;;;;;;;;;;;;5.39;100.00;101183.56;5092083;28;19912;-33
2021/11/10 01:14:09;;;;;;;;;;;;;;;5.40;100.00;101180.72;5092087;28;19959;-34
2021/11/10 01:16:35;;;;;;;;;;;;;;;5.42;100.00;101181.38;5091964;28;19956;-33
2021/11/10 01:19:01;;;;;;;;;;;;;;;5.27;100.00;101193.69;5092019;28;19912;-33
2021/11/10 01:21:26;;;;;;;;;;;;;;;5.32;100.00;101191.34;5091955;28;19919;-34
2021/11/10 01:23:51;;;;;;;;;;;;;;;5.37;100.00;101204.88;5091969;28;19908;-33
2021/11/10 01:26:17;;;;;;;;;;;;;;;5.43;100.00;101198.03;5091986;28;19916;-33
2021/11/10 01:28:43;;;;;;;;;;;;;;;5.55;100.00;101198.47;5091944;28;19916;-33
2021/11/10 01:31:08;;;;;;;;;;;;;;;5.47;100.00;101204.63;5091881;28;19958;-33
2021/11/10 01:33:33;;;;;;;;;;;;;;;5.34;100.00;101202.53;5091843;28;19907;-33
2021/11/10 01:35:59;;;;;;;;;;;;;;;5.38;100.00;101203.84;5092076;28;19912;-33
2021/11/10 01:38:24;;;;;;;;;;;;;;;5.39;100.00;101210.00;5093396;28;20402;-33
2021/11/10 01:40:51;;;;;;;;;;;;;;;5.26;100.00;101221.91;5095833;28;20373;-33
2021/11/10 01:43:17;;;;;;;;;;;;;;;5.24;100.00;101221.28;5095500;28;19916;-33
2021/11/10 01:45:43;;;;;;;;;;;;;;;5.19;100.00;101220.13;5095791;28;19913;-34
2021/11/10 01:48:08;;;;;;;;;;;;;;;5.23;100.00;101221.44;5094228;28;19912;-33
2021/11/10 01:50:34;;;;;;;;;;;;;;;5.25;100.00;101222.91;5095643;28;19919;-33
2021/11/10 01:52:59;;;;;;;;;;;;;;;5.24;100.00;101228.38;5095159;28;20391;-33
2021/11/10 01:55:27;;;;;;;;;;;;;;;5.02;100.00;101222.84;5095331;28;19968;-33
2021/11/10 01:57:52;;;;;;;;;;;;;;;5.00;100.00;101221.34;5095215;28;19912;-34
2021/11/10 02:00:19;;;;;;;;;;;;;;;4.96;100.00;101238.53;5095135;28;19912;-33
2021/11/10 02:02:44;;;;;;;;;;;;;;;5.02;100.00;101241.34;5095502;28;19912;-34
2021/11/10 02:05:14;;;;;;;;;;;;;;;4.89;100.00;101239.22;5095078;28;20405;-33
2021/11/10 02:07:39;;;;;;;;;;;;;;;4.84;100.00;101240.69;5095373;28;19916;-33
2021/11/10 02:10:06;;;;;;;;;;;;;;;4.68;100.00;101244.19;5095273;28;19977;-33
2021/11/10 02:12:32;;;;;;;;;;;;;;;4.47;100.00;101244.72;5094957;28;20384;-33
2021/11/10 02:14:58;;;;;;;;;;;;;;;4.45;100.00;101249.31;5094921;28;19937;-33
2021/11/10 02:17:24;;;;;;;;;;;;;;;4.37;100.00;101245.69;5094795;28;20451;-32
2021/11/10 02:19:50;;;;;;;;;;;;;;;4.33;100.00;101252.28;5095196;28;19954;-33
2021/11/10 02:22:17;;;;;;;;;;;;;;;4.25;100.00;101257.56;5094725;28;19919;-33
2021/11/10 02:24:44;;;;;;;;;;;;;;;4.25;100.00;101249.63;5095048;28;19912;-33
2021/11/10 02:27:21;;;;;;;;;;;;;;;4.19;100.00;101245.03;5094621;28;19934;-33
2021/11/10 02:29:47;;;;;;;;;;;;;;;4.03;100.00;101254.56;5094691;28;19962;-33
2021/11/10 02:32:14;;;;;;;;;;;;;;;3.97;100.00;101249.13;5095358;28;19958;-33
2021/11/10 02:34:40;;;;;;;;;;;;;;;3.85;100.00;101252.06;5094917;28;19955;-33
2021/11/10 02:37:06;;;;;;;;;;;;;;;3.75;100.00;101243.47;5094447;28;19977;-33
2021/11/10 02:39:31;;;;;;;;;;;;;;;3.75;100.00;101250.56;5094477;28;19912;-33
2021/11/10 02:41:57;;;;;;;;;;;;;;;3.67;100.00;101251.34;5094402;28;19923;-33
2021/11/10 02:44:23;;;;;;;;;;;;;;;3.64;100.00;101249.88;5094697;28;19916;-33
2021/11/10 02:46:50;;;;;;;;;;;;;;;3.58;100.00;101261.06;5094299;28;20436;-33
2021/11/10 02:49:16;;;;;;;;;;;;;;;3.54;100.00;101264.16;5093688;28;19912;-34
2021/11/10 02:52:02;;;;;;;;;;;;;;;3.47;100.00;101261.34;5093753;28;19919;-33
2021/11/10 02:54:29;;;;;;;;;;;;;;;3.42;100.00;101276.78;5093959;28;19916;-33
2021/11/10 02:56:56;;;;;;;;;;;;;;;3.33;100.00;101263.59;5094041;28;20010;-33
2021/11/10 02:59:22;;;;;;;;;;;;;;;3.29;100.00;101267.50;5094108;28;19912;-33
2021/11/10 03:01:48;;;;;;;;;;;;;;;3.14;100.00;101264.63;5094337;28;20359;-33
2021/11/10 03:04:19;;;;;;;;;;;;;;;3.19;100.00;101256.25;5094028;28;20078;-33
2021/11/10 03:06:46;;;;;;;;;;;;;;;3.13;100.00;101264.78;5093910;28;19912;-33
2021/11/10 03:09:11;;;;;;;;;;;;;;;3.10;100.00;101267.75;5093882;28;19918;-33
2021/11/10 03:11:37;;;;;;;;;;;;;;;3.16;100.00;101261.84;5094002;28;20014;-33
2021/11/10 03:14:02;;;;;;;;;;;;;;;3.18;100.00;101259.88;5093782;28;19962;-32
2021/11/10 03:16:27;;;;;;;;;;;;;;;3.09;100.00;101274.81;5093629;28;19919;-33
2021/11/10 03:18:53;;;;;;;;;;;;;;;3.04;100.00;101276.25;5093675;28;20006;-33
2021/11/10 03:21:18;;;;;;;;;;;;;;;2.93;100.00;101291.31;5093579;28;19912;-33
2021/11/10 03:23:44;;;;;;;;;;;;;;;2.89;100.00;101284.72;5093607;28;19934;-33
2021/11/10 03:26:10;;;;;;;;;;;;;;;2.96;100.00;101282.28;5093537;28;20303;-33
2021/11/10 03:28:35;;;;;;;;;;;;;;;2.98;100.00;101285.59;5093502;28;19916;-33
2021/11/10 03:31:01;;;;;;;;;;;;;;;2.88;100.00;101290.97;5093672;28;19912;-33
2021/11/10 03:33:26;;;;;;;;;;;;;;;2.89;100.00;101297.91;5093435;28;20394;-33
2021/11/10 03:35:52;;;;;;;;;;;;;;;2.79;100.00;101298.00;5093707;28;19997;-33
2021/11/10 03:38:18;;;;;;;;;;;;;;;2.78;100.00;101300.78;5093275;28;19982;-32
2021/11/10 03:40:43;;;;;;;;;;;;;;;2.73;100.00;101303.03;5093544;28;19912;-33
2021/11/10 03:43:08;;;;;;;;;;;;;;;2.68;100.00;101303.50;5093223;28;20299;-33
2021/11/10 03:45:34;;;;;;;;;;;;;;;2.74;100.00;101302.06;5093194;28;19912;-33
2021/11/10 03:48:00;;;;;;;;;;;;;;;2.70;100.00;101298.91;5093146;28;19969;-33
2021/11/10 03:50:26;;;;;;;;;;;;;;;2.72;100.00;101286.41;5093154;28;20027;-33
2021/11/10 03:52:51;;;;;;;;;;;;;;;2.64;100.00;101286.34;5092778;28;19964;-33
2021/11/10 03:55:17;;;;;;;;;;;;;;;2.58;100.00;101284.31;5093027;28;19969;-32
2021/11/10 03:57:42;;;;;;;;;;;;;;;2.61;100.00;101286.66;5092918;28;19919;-33
2021/11/10 04:00:08;;;;;;;;;;;;;;;2.65;100.00;101284.56;5093234;28;19912;-33
2021/11/10 04:02:33;;;;;;;;;;;;;;;2.75;100.00;101287.91;5092588;28;20440;-33
2021/11/10 04:04:59;;;;;;;;;;;;;;;2.73;100.00;101276.69;5093056;28;19916;-33
2021/11/10 04:07:25;;;;;;;;;;;;;;;2.64;100.00;101273.19;5092894;28;20384;-33
2021/11/10 04:09:51;;;;;;;;;;;;;;;2.60;100.00;101274.47;5093113;28;19985;-33
2021/11/10 04:12:16;;;;;;;;;;;;;;;2.61;100.00;101270.84;5092695;28;20375;-33
2021/11/10 04:14:42;;;;;;;;;;;;;;;2.66;100.00;101273.88;5092724;28;19912;-33
2021/11/10 04:17:09;;;;;;;;;;;;;;;2.54;100.00;101273.28;5092625;28;19916;-33
2021/11/10 04:19:35;;;;;;;;;;;;;;;2.52;100.00;101275.22;5093500;28;19912;-33
2021/11/10 04:22:02;;;;;;;;;;;;;;;2.48;100.00;101281.75;5092586;28;19934;-33
2021/11/10 04:24:27;;;;;;;;;;;;;;;2.41;100.00;101278.94;5092595;28;20002;-33
2021/11/10 04:26:53;;;;;;;;;;;;;;;2.35;100.00;101276.91;5092529;28;19954;-33
2021/11/10 04:29:18;;;;;;;;;;;;;;;2.20;100.00;101265.25;5092856;28;19912;-33
2021/11/10 04:31:44;;;;;;;;;;;;;;;2.13;100.00;101269.44;5092414;28;19912;-33
2021/11/10 04:34:10;;;;;;;;;;;;;;;2.03;100.00;101265.09;5093288;28;19916;-33
2021/11/10 04:36:36;;;;;;;;;;;;;;;1.97;100.00;101260.44;5092739;28;20354;-33
2021/11/10 04:39:02;;;;;;;;;;;;;;;2.03;100.00;101254.56;5092409;28;19912;-33
2021/11/10 04:41:28;;;;;;;;;;;;;;;2.03;100.00;101256.38;5093147;28;19912;-33
2021/11/10 04:43:53;;;;;;;;;;;;;;;2.07;100.00;101257.72;5092365;28;19919;-33
2021/11/10 04:46:53;;;;;;;;;;;;;;;2.11;100.00;101266.97;5092649;28;19912;-32
2021/11/10 04:49:10;;;;;;;;;;;;;;;2.11;100.00;101272.22;5091126;28;19911;-32
2021/11/10 04:51:36;;;;;;;;;;;;;;;2.17;100.00;101266.34;5092236;28;20390;-33
2021/11/10 04:54:09;;;;;;;;;;;;;;;1.92;100.00;101252.16;5092117;28;19916;-32
2021/11/10 04:56:38;;;;;;;;;;;;;;;2.02;100.00;101266.06;5092490;28;19912;-32
2021/11/10 04:59:04;;;;;;;;;;;;;;;1.97;100.00;101275.38;5092138;28;19973;-33
2021/11/10 05:01:32;;;;;;;;;;;;;;;1.95;100.00;101277.31;5092181;28;19922;-32
2021/11/10 05:03:58;;;;;;;;;;;;;;;1.95;100.00;101282.59;5092185;28;19919;-32
2021/11/10 05:06:24;;;;;;;;;;;;;;;1.95;100.00;101282.59;5092159;28;19912;-32
2021/11/10 05:08:49;;;;;;;;;;;;;;;2.02;100.00;101270.50;5092169;28;19950;-32
2021/11/10 05:11:15;;;;;;;;;;;;;;;1.99;100.00;101278.69;5092362;28;19912;-32
2021/11/10 05:13:41;;;;;;;;;;;;;;;2.11;100.00;101290.63;5093893;28;20376;-32
2021/11/10 05:16:07;;;;;;;;;;;;;;;2.31;100.00;101293.16;5095980;28;19912;-32
2021/11/10 05:18:32;;;;;;;;;;;;;;;2.45;100.00;101290.81;5094848;28;19920;-32
2021/11/10 05:20:57;;;;;;;;;;;;;;;2.68;100.00;101300.84;5096033;28;19966;-33
2021/11/10 05:23:23;;;;;;;;;;;;;;;2.71;100.00;101310.25;5096170;28;19947;-32
2021/11/10 05:25:49;;;;;;;;;;;;;;;2.90;100.00;101312.69;5095899;28;20367;-32
2021/11/10 05:28:15;;;;;;;;;;;;;;;3.14;100.00;101313.84;5095722;28;19919;-32
2021/11/10 05:30:40;;;;;;;;;;;;;;;3.54;100.00;101304.53;5095742;28;20010;-32
2021/11/10 05:33:06;;;;;;;;;;;;;;;3.74;100.00;101302.44;5095983;28;19966;-32
2021/11/10 05:35:31;;;;;;;;;;;;;;;3.87;100.00;101298.53;5095714;28;20368;-32
2021/11/10 05:37:57;;;;;;;;;;;;;;;4.18;100.00;101311.97;5095692;28;19919;-32
2021/11/10 05:40:22;;;;;;;;;;;;;;;4.37;100.00;101321.41;5095614;28;19918;-32
2021/11/10 05:42:48;;;;;;;;;;;;;;;4.46;97.97;101330.97;5095809;28;19918;-32
2021/11/10 05:45:13;;;;;;;;;;;;;;;4.64;91.31;101325.56;5095599;28;19912;-33
2021/11/10 05:47:39;;;;;;;;;;;;;;;4.93;94.73;101329.50;5095643;28;19963;-32
2021/11/10 05:50:05;;;;;;;;;;;;;;;4.69;90.80;101328.53;5095757;28;20303;-32
2021/11/10 05:52:30;;;;;;;;;;;;;;;4.86;89.73;101336.44;5095231;28;19912;-32
2021/11/10 05:54:56;;;;;;;;;;;;;;;4.63;85.18;101341.59;5095055;28;19981;-33
2021/11/10 05:57:22;;;;;;;;;;;;;;;4.55;88.27;101337.94;5095344;28;19916;-33
2021/11/10 05:59:47;;;;;;;;;;;;;;;4.47;92.67;101345.03;5095543;28;19916;-33
2021/11/10 06:02:13;;;;;;;;;;;;;;;4.26;93.86;101348.09;5095157;28;20369;-32
2021/11/10 06:04:39;;;;;;;;;;;;;;;4.87;91.55;101359.22;5095522;28;19912;-32
2021/11/10 06:07:05;;;;;;;;;;;;;;;5.11;83.14;101368.13;5095009;28;20299;-33
2021/11/10 06:09:31;;;;;;;;;;;;;;;5.38;85.25;101370.41;5095076;28;19961;-32
2021/11/10 06:11:57;;;;;;;;;;;;;;;5.40;83.12;101360.50;5094945;28;19959;-33
2021/11/10 06:14:23;;;;;;;;;;;;;;;5.53;83.00;101362.59;5095032;28;19966;-33
2021/11/10 06:16:49;;;;;;;;;;;;;;;5.29;85.52;101363.50;5094927;28;19915;-33
2021/11/10 06:19:14;;;;;;;;;;;;;;;5.23;85.42;101365.00;5095202;28;19935;-33
2021/11/10 06:21:40;;;;;;;;;;;;;;;5.35;82.37;101369.94;5094795;28;20371;-33
2021/11/10 06:24:05;;;;;;;;;;;;;;;5.17;84.06;101376.25;5094727;28;20006;-33
2021/11/10 06:26:31;;;;;;;;;;;;;;;5.18;87.37;101377.06;5094668;28;19912;-33
2021/11/10 06:28:56;;;;;;;;;;;;;;;5.04;88.40;101371.44;5094681;28;19915;-33
2021/11/10 06:31:22;;;;;;;;;;;;;;;5.00;87.70;101364.84;5094639;28;19919;-33
2021/11/10 06:33:49;;;;;;;;;;;;;;;4.84;88.44;101370.13;5094846;28;19915;-33
2021/11/10 06:36:14;;;;;;;;;;;;;;;4.68;83.10;101368.31;5094584;28;20368;-32
2021/11/10 06:38:40;;;;;;;;;;;;;;;4.48;89.98;101367.81;5094831;28;19912;-32
2021/11/10 06:41:05;;;;;;;;;;;;;;;4.75;88.98;101381.69;5094510;28;19919;-32
2021/11/10 06:43:31;;;;;;;;;;;;;;;4.85;89.29;101369.97;5094352;28;19918;-33
2021/11/10 06:45:56;;;;;;;;;;;;;;;4.63;90.12;101373.28;5094334;28;19919;-32
2021/11/10 06:48:22;;;;;;;;;;;;;;;4.69;86.63;101360.22;5094249;28;20014;-32
2021/11/10 06:50:48;;;;;;;;;;;;;;;4.37;88.13;101358.34;5094527;28;19916;-32
2021/11/10 06:53:14;;;;;;;;;;;;;;;4.24;86.03;101376.47;5094190;28;20035;-32
2021/11/10 06:55:40;;;;;;;;;;;;;;;4.47;89.26;101374.88;5094531;28;20297;-32
2021/11/10 06:58:05;;;;;;;;;;;;;;;4.63;89.46;101379.38;5094418;28;19912;-32
2021/11/10 07:00:31;;;;;;;;;;;;;;;4.66;83.32;101383.50;5094097;28;20273;-32
2021/11/10 07:02:57;;;;;;;;;;;;;;;4.69;87.87;101378.69;5093977;28;19916;-32
2021/11/10 07:05:23;;;;;;;;;;;;;;;4.79;89.75;101370.63;5094277;28;19912;-32
2021/11/10 07:07:48;;;;;;;;;;;;;;;4.90;93.57;101382.69;5093886;28;19989;-32
2021/11/10 07:10:14;;;;;;;;;;;;;;;5.00;78.73;101383.34;5093885;28;19919;-32
2021/11/10 07:12:39;;;;;;;;;;;;;;;5.13;81.45;101379.38;5093778;28;19912;-32
2021/11/10 07:15:05;;;;;;;;;;;;;;;5.22;84.28;101376.53;5093775;28;19912;-33
2021/11/10 07:17:30;;;;;;;;;;;;;;;5.34;84.13;101381.50;5093686;28;19912;-33
2021/11/10 07:19:56;;;;;;;;;;;;;;;5.35;81.05;101389.25;5093710;28;19973;-32
2021/11/10 07:22:22;;;;;;;;;;;;;;;5.43;79.44;101385.75;5093864;28;19912;-32
2021/11/10 07:24:48;;;;;;;;;;;;;;;5.42;80.80;101384.94;5093603;28;19912;-32
2021/11/10 07:27:14;;;;;;;;;;;;;;;5.37;80.40;101384.66;5093481;28;19918;-32
2021/11/10 07:29:39;;;;;;;;;;;;;;;5.42;85.59;101374.38;5093825;28;19944;-33
2021/11/10 07:32:05;;;;;;;;;;;;;;;5.50;83.15;101378.00;5093705;28;20360;-33
2021/11/10 07:34:30;;;;;;;;;;;;;;;5.53;79.33;101390.88;5093420;28;20315;-33
2021/11/10 07:36:56;;;;;;;;;;;;;;;5.52;82.51;101397.16;5093768;28;19923;-32
2021/11/10 07:39:21;;;;;;;;;;;;;;;5.75;84.29;101392.78;5093356;28;19912;-33
2021/11/10 07:41:49;;;;;;;;;;;;;;;5.73;77.44;101384.22;5093274;28;20008;-32
2021/11/10 07:44:14;;;;;;;;;;;;;;;5.93;83.23;101375.88;5093453;28;19919;-33
2021/11/10 07:46:41;;;;;;;;;;;;;;;5.96;80.05;101384.31;5093546;28;19916;-33
2021/11/10 07:49:06;;;;;;;;;;;;;;;6.02;85.69;101388.13;5093455;28;19927;-33
2021/11/10 07:51:32;;;;;;;;;;;;;;;6.13;79.59;101394.84;5093041;28;19908;-32
2021/11/10 07:54:00;;;;;;;;;;;;;;;6.13;82.66;101382.41;5092930;28;19922;-33
2021/11/10 07:56:25;;;;;;;;;;;;;;;6.01;83.98;101385.66;5093000;28;19912;-33
2021/11/10 07:58:51;;;;;;;;;;;;;;;6.13;81.17;101378.97;5093309;28;20020;-33
2021/11/10 08:01:17;;;;;;;;;;;;;;;6.06;86.45;101384.09;5092948;28;19922;-33
2021/11/10 08:03:42;;;;;;;;;;;;;;;5.95;83.57;101390.56;5092870;28;19912;-32
2021/11/10 08:06:08;;;;;;;;;;;;;;;5.99;86.52;101392.91;5092933;28;19919;-33
2021/11/10 08:08:33;;;;;;;;;;;;;;;5.71;87.11;101388.88;5093167;28;19919;-33
2021/11/10 08:11:00;;;;;;;;;;;;;;;5.95;92.14;101381.81;5092794;28;20028;-32
2021/11/10 08:13:26;;;;;;;;;;;;;;;5.95;88.22;101381.81;5093405;28;19948;-33
2021/11/10 08:15:53;;;;;;;;;;;;;;;6.03;86.92;101384.44;5093053;28;19912;-32
2021/11/10 08:18:19;;;;;;;;;;;;;;;6.08;91.41;101389.25;5092728;28;19994;-32
2021/11/10 08:20:45;;;;;;;;;;;;;;;6.06;86.95;101381.47;5092706;28;19912;-32
2021/11/10 08:23:13;;;;;;;;;;;;;;;6.01;86.74;101380.34;5092841;28;19966;-32
2021/11/10 08:25:39;;;;;;;;;;;;;;;6.02;88.38;101377.53;5092902;28;20415;-32
2021/11/10 08:28:04;;;;;;;;;;;;;;;6.11;88.28;101378.31;5092803;28;19955;-33
2021/11/10 08:30:30;;;;;;;;;;;;;;;6.25;90.38;101380.22;5092510;28;20300;-33
2021/11/10 08:32:56;;;;;;;;;;;;;;;6.41;85.44;101389.06;5092760;28;19911;-32
2021/11/10 08:35:21;;;;;;;;;;;;;;;6.38;81.98;101384.94;5092492;28;20391;-32
2021/11/10 08:37:51;;;;;;;;;;;;;;;6.39;88.42;101385.78;5092458;28;19912;-32
2021/11/10 08:40:16;;;;;;;;;;;;;;;6.52;83.06;101378.09;5092557;28;19920;-32
2021/11/10 08:42:41;;;;;;;;;;;;;;;6.25;82.53;101371.44;5092400;28;19923;-32
2021/11/10 08:45:12;;;;;;;;;;;;;;;6.10;77.87;101374.00;5092394;28;19947;-32
2021/11/10 08:47:38;;;;;;;;;;;;;;;6.12;83.82;101375.50;5092598;28;19919;-32
2021/11/10 08:50:05;;;;;;;;;;;;;;;6.32;77.09;101361.81;5096607;28;19912;-32
2021/11/10 08:52:30;;;;;;;;;;;;;;;6.06;80.22;101365.56;5096545;28;19934;-32
2021/11/10 08:54:56;;;;;;;;;;;;;;;6.25;80.90;101368.81;5096226;28;19928;-32
2021/11/10 08:57:21;;;;;;;;;;;;;;;6.16;85.14;101370.66;5096735;28;19912;-32
2021/11/10 08:59:47;;;;;;;;;;;;;;;6.30;86.38;101362.00;5097222;28;19978;-32
2021/11/10 09:02:12;;;;;;;;;;;;;;;6.06;84.99;101357.63;5096344;28;19919;-32
2021/11/10 09:04:38;;;;;;;;;;;;;;;6.19;78.63;101359.72;5096559;28;19912;-32
2021/11/10 09:07:04;;;;;;;;;;;;;;;6.28;79.54;101357.84;5096235;28;19977;-32
2021/11/10 09:09:30;;;;;;;;;;;;;;;6.32;78.33;101359.16;5096599;28;19935;-32
2021/11/10 09:11:55;;;;;;;;;;;;;;;6.48;79.55;101359.06;5096509;28;20387;-32
2021/11/10 09:14:21;;;;;;;;;;;;;;;6.47;79.05;101351.28;5096366;28;19919;-32
2021/11/10 09:16:47;;;;;;;;;;;;;;;6.52;73.95;101346.31;5096081;28;20345;-32
2021/11/10 09:19:13;;;;;;;;;;;;;;;6.67;74.43;101350.84;5096066;28;20006;-32
2021/11/10 09:21:38;;;;;;;;;;;;;;;6.88;79.84;101345.69;5096340;28;19912;-32
2021/11/10 09:24:05;;;;;;;;;;;;;;;7.05;75.65;101349.03;5094741;28;20316;-32
2021/11/10 09:26:30;;;;;;;;;;;;;;;6.85;75.48;101345.22;5095861;28;19912;-32
2021/11/10 09:28:56;;;;;;;;;;;;;;;6.85;75.56;101348.69;5095813;28;19924;-32
2021/11/10 09:31:22;;;;;;;;;;;;;;;6.64;74.44;101344.88;5096295;28;19912;-32
2021/11/10 09:33:49;;;;;;;;;;;;;;;6.87;76.45;101340.56;5095726;28;19912;-33
2021/11/10 09:36:14;;;;;;;;;;;;;;;6.93;77.64;101340.69;5095664;28;19925;-32
2021/11/10 09:38:41;;;;;;;;;;;;;;;7.05;76.19;101338.41;5095991;28;19945;-32
2021/11/10 09:41:08;;;;;;;;;;;;;;;7.07;75.42;101332.94;5095626;28;19955;-32
2021/11/10 09:43:35;;;;;;;;;;;;;;;6.67;70.17;101327.00;5095868;28;19912;-33
2021/11/10 09:46:01;;;;;;;;;;;;;;;6.18;73.53;101330.78;5095514;28;20402;-32
2021/11/10 09:48:27;;;;;;;;;;;;;;;6.46;77.87;101324.00;5095784;28;20400;-33
2021/11/10 09:50:53;;;;;;;;;;;;;;;6.75;79.02;101325.06;5095447;28;20005;-33
2021/11/10 09:53:19;;;;;;;;;;;;;;;6.69;74.03;101328.44;5095409;28;20053;-33
2021/11/10 09:55:47;;;;;;;;;;;;;;;6.74;77.38;101318.16;5095337;28;20387;-32
2021/11/10 09:58:13;;;;;;;;;;;;;;;6.71;77.08;101318.50;5095383;28;19912;-32
2021/11/10 10:00:47;;;;;;;;;;;;;;;6.80;77.83;101314.78;5095143;28;19915;-33
2021/11/10 10:03:13;;;;;;;;;;;;;;;6.94;69.92;101317.63;5095252;28;19977;-33
2021/11/10 10:05:38;;;;;;;;;;;;;;;6.99;73.93;101323.25;5095079;28;19908;-32
2021/11/10 10:08:05;;;;;;;;;;;;;;;7.00;72.42;101315.09;5095409;28;19912;-32
2021/11/10 10:10:31;;;;;;;;;;;;;;;6.97;66.33;101311.97;5095121;28;19977;-32
2021/11/10 10:12:58;;;;;;;;;;;;;;;6.98;72.92;101310.97;5095917;28;19923;-33
2021/11/10 10:15:26;;;;;;;;;;;;;;;7.03;69.97;101311.25;5094990;28;19919;-33
2021/11/10 10:17:58;;;;;;;;;;;;;;;7.24;74.51;101307.91;5095211;28;20388;-33
2021/11/10 10:20:37;;;;;;;;;;;;;;;7.16;72.58;101302.69;5095243;28;20006;-33
2021/11/10 10:23:05;;;;;;;;;;;;;;;7.15;72.04;101293.91;5094864;28;20379;-33
2021/11/10 10:25:44;;;;;;;;;;;;;;;7.14;73.92;101300.22;5094759;28;19954;-33
2021/11/10 10:28:17;;;;;;;;;;;;;;;7.26;74.82;101297.94;5094748;28;19915;-32
2021/11/10 10:30:50;;;;;;;;;;;;;;;7.26;72.28;101294.47;5094717;28;19916;-33
2021/11/10 10:33:18;;;;;;;;;;;;;;;7.13;72.20;101287.13;5094665;28;19912;-33
2021/11/10 10:35:49;;;;;;;;;;;;;;;7.23;74.08;101285.03;5094547;28;19912;-33
2021/11/10 10:38:16;;;;;;;;;;;;;;;7.35;71.96;101288.06;5094552;28;19912;-32
2021/11/10 10:40:42;;;;;;;;;;;;;;;7.35;70.84;101286.22;5094843;28;20443;-32
2021/11/10 10:43:08;;;;;;;;;;;;;;;7.32;74.84;101288.41;5094794;28;19908;-33
2021/11/10 10:45:44;;;;;;;;;;;;;;;7.27;78.71;101285.50;5094667;28;20357;-32
2021/11/10 10:48:14;;;;;;;;;;;;;;;7.21;77.10;101288.88;5094618;28;19912;-32
2021/11/10 10:50:42;;;;;;;;;;;;;;;7.33;77.27;101288.25;5094619;28;20306;-32
2021/11/10 10:53:08;;;;;;;;;;;;;;;7.37;78.63;101283.41;5094061;28;20439;-32
2021/11/10 10:55:57;;;;;;;;;;;;;;;7.29;75.13;101276.34;5094230;28;20405;-31
2021/11/10 10:58:33;;;;;;;;;;;;;;;7.23;74.24;101278.91;5094182;28;19943;-32
2021/11/10 11:01:32;;;;;;;;;;;;;;;7.23;75.24;101274.44;5094409;28;19934;-32
2021/11/10 11:04:19;;;;;;;;;;;;;;;7.39;73.99;101285.88;5093738;28;19937;-32
2021/11/10 11:07:10;;;;;;;;;;;;;;;7.29;75.44;101270.22;5093573;28;20315;-32
2021/11/10 11:10:00;;;;;;;;;;;;;;;7.33;79.94;101268.84;5094260;28;19912;-31
2021/11/10 11:12:58;;;;;;;;;;;;;;;7.26;78.41;101266.09;5094397;28;19912;-32
2021/11/10 11:15:48;;;;;;;;;;;;;;;7.21;83.38;101268.50;5093957;28;20383;-32
2021/11/10 11:18:34;;;;;;;;;;;;;;;7.23;80.11;101268.31;5093678;28;20357;-32
2021/11/10 11:21:29;;;;;;;;;;;;;;;7.33;77.61;101259.06;5093789;28;20726;-32
2021/11/10 11:24:15;;;;;;;;;;;;;;;7.27;78.26;101270.41;5094491;28;19955;-32
2021/11/10 11:27:02;;;;;;;;;;;;;;;7.33;77.56;101266.22;5093437;28;19920;-31
2021/11/10 11:29:48;;;;;;;;;;;;;;;7.26;75.53;101267.94;5092637;28;19912;-32
2021/11/10 11:32:18;;;;;;;;;;;;;;;7.23;80.93;101255.88;5094145;28;20350;-32
2021/11/10 11:35:02;;;;;;;;;;;;;;;7.11;82.31;101270.59;5093638;28;19966;-32
2021/11/10 11:37:28;;;;;;;;;;;;;;;7.24;81.86;101272.59;5093671;28;19912;-32
2021/11/10 11:39:54;;;;;;;;;;;;;;;7.29;84.68;101262.28;5093294;28;20357;-32
2021/11/10 11:42:20;;;;;;;;;;;;;;;7.23;86.18;101266.47;5092033;28;19969;-32
2021/11/10 11:44:46;;;;;;;;;;;;;;;7.26;89.80;101268.75;5093471;28;19920;-33
2021/11/10 11:47:12;;;;;;;;;;;;;;;7.40;87.87;101272.44;5093103;28;20364;-33
2021/11/10 11:49:40;;;;;;;;;;;;;;;7.42;89.13;101272.25;5093174;28;19912;-33
2021/11/10 11:52:07;;;;;;;;;;;;;;;7.54;86.33;101268.91;5093173;28;20304;-33
2021/11/10 11:54:34;;;;;;;;;;;;;;;7.36;86.84;101271.97;5093186;28;19959;-33
2021/11/10 11:57:01;;;;;;;;;;;;;;;7.36;85.40;101264.00;5093075;28;19943;-33
2021/11/10 11:59:28;;;;;;;;;;;;;;;7.39;87.10;101262.00;5093283;28;20034;-33
2021/11/10 12:01:55;;;;;;;;;;;;;;;7.43;86.29;101257.94;5092966;28;19970;-33
2021/11/10 12:04:28;;;;;;;;;;;;;;;7.39;84.87;101262.81;5092880;28;20006;-32
2021/11/10 12:06:54;;;;;;;;;;;;;;;7.54;89.32;101258.31;5092797;28;19912;-32
2021/11/10 12:09:20;;;;;;;;;;;;;;;7.60;88.19;101262.03;5093141;28;19912;-32
2021/11/10 12:11:50;;;;;;;;;;;;;;;7.43;83.73;101255.28;5092817;28;19939;-33
2021/11/10 12:14:18;;;;;;;;;;;;;;;7.25;86.84;101245.88;5092798;28;20080;-32
2021/11/10 12:17:02;;;;;;;;;;;;;;;7.25;91.71;101250.38;5092632;28;19970;-32
2021/11/10 12:19:34;;;;;;;;;;;;;;;7.27;84.42;101249.19;5092728;28;20364;-32
2021/11/10 12:22:01;;;;;;;;;;;;;;;7.36;86.67;101247.28;5092544;28;20007;-32
2021/11/10 12:24:28;;;;;;;;;;;;;;;7.47;87.19;101248.63;5092950;28;19923;-32
2021/11/10 12:27:08;;;;;;;;;;;;;;;7.40;86.28;101243.25;5092723;28;20337;-32
2021/11/10 12:29:39;;;;;;;;;;;;;;;7.30;91.26;101246.19;5091344;28;20036;-32
2021/11/10 12:32:05;;;;;;;;;;;;;;;7.38;93.17;101247.91;5092500;28;20394;-33
2021/11/10 12:34:30;;;;;;;;;;;;;;;7.27;86.89;101241.25;5092508;28;19912;-32
2021/11/10 12:36:59;;;;;;;;;;;;;;;7.29;88.38;101235.75;5092436;28;19915;-33
2021/11/10 12:39:32;;;;;;;;;;;;;;;7.22;92.55;101246.25;5092437;28;20141;-32
2021/11/10 12:42:01;;;;;;;;;;;;;;;7.27;85.52;101237.78;5092747;28;19916;-32
2021/11/10 12:44:30;;;;;;;;;;;;;;;7.28;89.97;101234.09;5092683;28;19912;-32